createdAt,value
2019-02-17T00:01:48.859Z,14.90
2019-02-17T00:04:35.980Z,16.10
2019-02-17T00:07:23.307Z,15.63
2019-02-17T00:10:10.825Z,16.27
2019-02-17T00:12:58.453Z,17.57
2019-02-17T00:15:45.772Z,14.73
2019-02-17T00:18:33.402Z,14.27
2019-02-17T00:21:20.929Z,16.30
2019-02-17T00:24:08.772Z,17.30
2019-02-17T00:26:56.408Z,16.23
2019-02-17T00:29:44.021Z,13.97
2019-02-17T00:32:31.750Z,15.43
2019-02-17T00:35:18.973Z,14.73
2019-02-17T00:38:06.701Z,15.93
2019-02-17T00:40:54.536Z,16.57
2019-02-17T00:43:42.339Z,16.10
2019-02-17T00:46:30.000Z,14.77
2019-02-17T00:49:17.702Z,13.87
2019-02-17T00:52:05.334Z,14.80
2019-02-17T00:54:52.887Z,14.40
2019-02-17T00:57:41.211Z,14.57
2019-02-17T01:00:28.547Z,14.77
2019-02-17T01:03:16.287Z,16.37
2019-02-17T01:06:03.499Z,12.90
2019-02-17T01:08:50.821Z,15.30
2019-02-17T01:11:38.143Z,16.67
2019-02-17T01:14:25.683Z,15.47
2019-02-17T01:17:12.964Z,14.80
2019-02-17T01:20:00.435Z,15.33
2019-02-17T01:22:47.840Z,14.13
2019-02-17T01:25:35.171Z,13.83
2019-02-17T01:28:22.593Z,13.73
2019-02-17T01:31:10.118Z,15.07
2019-02-17T01:33:57.545Z,14.73
2019-02-17T01:36:45.072Z,16.83
2019-02-17T01:39:32.689Z,14.30
2019-02-17T01:42:20.934Z,13.17
2019-02-17T01:45:09.583Z,14.17
2019-02-17T01:47:56.610Z,15.40
2019-02-17T01:50:44.108Z,14.77
2019-02-17T01:53:31.661Z,13.50
2019-02-17T01:56:19.091Z,15.10
2019-02-17T01:59:06.816Z,13.67
2019-02-17T02:01:54.387Z,14.90
2019-02-17T02:04:42.075Z,14.00
2019-02-17T02:07:29.505Z,13.60
2019-02-17T02:10:17.023Z,14.13
2019-02-17T02:13:04.142Z,14.87
2019-02-17T02:15:51.871Z,17.13
2019-02-17T02:18:39.401Z,16.83
2019-02-17T02:21:26.585Z,14.03
2019-02-17T02:24:14.349Z,14.90
2019-02-17T02:27:01.672Z,17.97
2019-02-17T02:29:49.403Z,18.90
2019-02-17T02:32:36.827Z,21.20
2019-02-17T02:35:24.261Z,19.53
2019-02-17T02:38:13.559Z,17.03
2019-02-17T02:41:01.153Z,15.50
2019-02-17T02:43:48.407Z,13.97
2019-02-17T02:46:36.202Z,16.20
2019-02-17T02:49:23.315Z,14.40
2019-02-17T02:52:10.951Z,14.43
2019-02-17T02:54:58.474Z,15.83
2019-02-17T02:57:45.795Z,15.63
2019-02-17T03:00:33.527Z,16.87
2019-02-17T03:03:21.255Z,16.83
2019-02-17T03:06:10.625Z,16.70
2019-02-17T03:08:57.845Z,16.27
2019-02-17T03:11:45.270Z,15.13
2019-02-17T03:14:32.611Z,15.97
2019-02-17T03:17:20.322Z,16.00
2019-02-17T03:20:09.638Z,14.87
2019-02-17T03:22:56.708Z,16.37
2019-02-17T03:25:45.289Z,16.73
2019-02-17T03:28:33.292Z,16.67
2019-02-17T03:31:21.033Z,17.83
2019-02-17T03:34:08.556Z,15.53
2019-02-17T03:36:56.182Z,15.77
2019-02-17T03:39:44.329Z,16.10
2019-02-17T03:42:31.232Z,15.83
2019-02-17T03:45:18.764Z,18.67
2019-02-17T03:48:06.289Z,15.70
2019-02-17T03:50:53.627Z,16.70
2019-02-17T03:53:41.134Z,17.03
2019-02-17T03:56:28.968Z,15.80
2019-02-17T03:59:16.527Z,17.17
2019-02-17T04:02:04.280Z,17.30
2019-02-17T04:04:51.958Z,16.93
2019-02-17T04:07:39.287Z,16.87
2019-02-17T04:10:28.571Z,16.50
2019-02-17T04:13:15.571Z,15.47
2019-02-17T04:16:02.881Z,17.80
2019-02-17T04:18:50.203Z,17.40
2019-02-17T04:21:38.041Z,15.83
2019-02-17T04:24:25.462Z,15.53
2019-02-17T04:27:12.785Z,16.20
2019-02-17T04:30:00.674Z,15.23
2019-02-17T04:32:48.050Z,13.93
2019-02-17T04:35:35.470Z,15.77
2019-02-17T04:38:22.996Z,15.50
2019-02-17T04:41:10.830Z,18.17
2019-02-17T04:43:58.252Z,19.63
2019-02-17T04:46:45.371Z,17.30
2019-02-17T04:49:33.101Z,16.60
2019-02-17T04:52:20.731Z,20.97
2019-02-17T04:55:08.764Z,16.20
2019-02-17T04:57:56.294Z,17.00
2019-02-17T05:00:44.341Z,16.97
2019-02-17T05:03:31.654Z,16.53
2019-02-17T05:06:18.975Z,17.07
2019-02-17T05:09:06.807Z,17.77
2019-02-17T05:11:53.928Z,16.10
2019-02-17T05:14:41.040Z,17.80
2019-02-17T05:17:28.885Z,17.37
2019-02-17T05:20:16.613Z,15.87
2019-02-17T05:23:04.137Z,18.73
2019-02-17T05:25:51.802Z,19.20
2019-02-17T05:28:39.505Z,17.80
2019-02-17T05:31:27.326Z,19.47
2019-02-17T05:34:15.163Z,18.70
2019-02-17T05:37:02.180Z,19.10
2019-02-17T05:39:49.398Z,19.97
2019-02-17T05:42:37.235Z,19.37
2019-02-17T05:45:24.958Z,22.63
2019-02-17T05:48:12.593Z,21.47
2019-02-17T05:51:00.318Z,21.03
2019-02-17T05:53:48.054Z,20.03
2019-02-17T05:56:35.583Z,19.03
2019-02-17T05:59:22.670Z,19.80
2019-02-17T06:02:10.325Z,19.50
2019-02-17T06:04:57.857Z,21.53
2019-02-17T06:07:45.181Z,18.17
2019-02-17T06:10:32.799Z,20.30
2019-02-17T06:13:20.326Z,22.50
2019-02-17T06:16:07.753Z,27.73
2019-02-17T06:18:55.175Z,18.50
2019-02-17T06:21:43.217Z,16.73
2019-02-17T06:24:31.155Z,18.53
2019-02-17T06:27:19.692Z,21.50
2019-02-17T06:30:09.200Z,17.43
2019-02-17T06:32:57.007Z,18.83
2019-02-17T06:35:44.428Z,17.37
2019-02-17T06:38:31.956Z,20.07
2019-02-17T06:41:19.380Z,17.80
2019-02-17T06:44:06.702Z,21.10
2019-02-17T06:46:55.456Z,19.97
2019-02-17T06:49:42.677Z,20.87
2019-02-17T06:52:29.998Z,21.53
2019-02-17T06:55:28.380Z,20.43
2019-02-17T06:58:16.109Z,19.87
2019-02-17T07:01:03.444Z,22.47
2019-02-17T07:03:51.066Z,22.77
2019-02-17T07:06:39.874Z,22.77
2019-02-17T07:09:27.242Z,21.83
2019-02-17T07:12:14.873Z,18.40
2019-02-17T07:15:02.193Z,20.17
2019-02-17T07:17:49.619Z,19.80
2019-02-17T07:20:37.039Z,22.13
2019-02-17T07:23:24.876Z,21.33
2019-02-17T07:26:12.501Z,21.43
2019-02-17T07:28:59.818Z,21.70
2019-02-17T07:31:47.351Z,22.33
2019-02-17T07:34:34.884Z,22.27
2019-02-17T07:37:32.723Z,24.63
2019-02-17T07:40:11.466Z,20.13
2019-02-17T07:42:58.890Z,19.97
2019-02-17T07:45:46.318Z,19.80
2019-02-17T07:48:33.737Z,20.73
2019-02-17T07:51:21.060Z,21.77
2019-02-17T07:54:08.789Z,22.57
2019-02-17T07:56:55.922Z,20.57
2019-02-17T07:59:43.333Z,18.87
2019-02-17T08:02:30.550Z,20.23
2019-02-17T08:05:18.602Z,20.70
2019-02-17T08:08:06.012Z,24.83
2019-02-17T08:11:03.444Z,23.13
2019-02-17T08:13:42.806Z,24.77
2019-02-17T08:16:30.639Z,20.23
2019-02-17T08:19:18.375Z,18.67
2019-02-17T08:22:05.836Z,19.67
2019-02-17T08:24:53.526Z,19.33
2019-02-17T08:27:41.155Z,21.37
2019-02-17T08:30:28.578Z,18.47
2019-02-17T08:33:15.798Z,18.40
2019-02-17T08:36:03.427Z,18.07
2019-02-17T08:38:51.057Z,19.47
2019-02-17T08:41:38.584Z,18.83
2019-02-17T08:44:26.426Z,19.60
2019-02-17T08:47:14.251Z,19.53
2019-02-17T08:50:01.701Z,19.50
2019-02-17T08:52:49.104Z,18.60
2019-02-17T08:55:36.841Z,18.50
2019-02-17T08:58:24.253Z,17.43
2019-02-17T09:01:11.369Z,17.63
2019-02-17T09:03:58.617Z,19.70
2019-02-17T09:06:46.014Z,17.67
2019-02-17T09:09:33.550Z,18.37
2019-02-17T09:12:21.479Z,18.67
2019-02-17T09:15:12.649Z,19.53
2019-02-17T09:18:00.630Z,18.27
2019-02-17T09:20:48.005Z,20.70
2019-02-17T09:23:35.781Z,20.10
2019-02-17T09:26:23.408Z,19.73
2019-02-17T09:29:11.556Z,19.37
2019-02-17T09:31:59.560Z,18.23
2019-02-17T09:34:47.218Z,18.37
2019-02-17T09:37:34.643Z,23.30
2019-02-17T09:40:22.475Z,28.80
2019-02-17T09:43:09.875Z,60.87
2019-02-17T09:45:57.529Z,28.57
2019-02-17T09:48:44.953Z,25.20
2019-02-17T09:51:32.278Z,27.47
2019-02-17T09:54:20.021Z,31.87
2019-02-17T09:57:07.839Z,26.27
2019-02-17T09:59:55.371Z,27.77
2019-02-17T10:02:42.790Z,24.70
2019-02-17T10:05:30.120Z,28.53
2019-02-17T10:08:17.848Z,28.33
2019-02-17T10:11:16.441Z,22.47
2019-02-17T10:14:03.861Z,24.37
2019-02-17T10:16:51.381Z,27.73
2019-02-17T10:19:38.668Z,23.83
2019-02-17T10:22:26.021Z,25.70
2019-02-17T10:25:13.241Z,24.13
2019-02-17T10:28:00.874Z,24.72
2019-02-17T10:30:48.498Z,24.07
2019-02-17T10:33:36.493Z,23.57
2019-02-17T10:36:24.169Z,24.13
2019-02-17T10:39:11.804Z,23.50
2019-02-17T10:41:59.223Z,25.37
2019-02-17T10:44:47.097Z,21.43
2019-02-17T10:47:34.888Z,23.33
2019-02-17T10:50:22.577Z,22.70
2019-02-17T10:53:09.949Z,21.80
2019-02-17T10:55:57.588Z,21.50
2019-02-17T10:58:45.507Z,21.57
2019-02-17T11:01:32.622Z,22.40
2019-02-17T11:04:20.046Z,23.33
2019-02-17T11:07:07.573Z,23.67
2019-02-17T11:09:55.822Z,20.73
2019-02-17T11:12:43.643Z,23.07
2019-02-17T11:15:30.982Z,22.50
2019-02-17T11:18:18.599Z,21.57
2019-02-17T11:21:05.927Z,20.43
2019-02-17T11:23:53.608Z,21.13
2019-02-17T11:26:41.588Z,19.27
2019-02-17T11:29:29.424Z,20.90
2019-02-17T11:32:16.847Z,21.87
2019-02-17T11:35:05.521Z,21.13
2019-02-17T11:37:53.232Z,19.97
2019-02-17T11:40:41.215Z,21.47
2019-02-17T11:43:28.604Z,20.17
2019-02-17T11:46:16.016Z,21.53
2019-02-17T11:49:03.543Z,20.97
2019-02-17T11:51:50.766Z,19.33
2019-02-17T11:54:37.880Z,19.17
2019-02-17T11:57:25.200Z,21.03
2019-02-17T12:00:18.268Z,20.37
2019-02-17T12:03:08.330Z,21.87
2019-02-17T12:05:55.054Z,21.37
2019-02-17T12:08:46.879Z,18.37
2019-02-17T12:11:34.207Z,19.70
2019-02-17T12:14:21.829Z,20.17
2019-02-17T12:17:09.767Z,17.93
2019-02-17T12:19:59.243Z,17.03
2019-02-17T12:22:48.309Z,17.27
2019-02-17T12:25:40.949Z,15.87
2019-02-17T12:28:36.257Z,15.53
2019-02-17T12:31:25.012Z,14.93
2019-02-17T12:34:12.435Z,16.47
2019-02-17T12:37:00.167Z,14.07
2019-02-17T12:39:47.799Z,13.97
2019-02-17T12:42:35.434Z,13.40
2019-02-17T12:45:22.747Z,13.40
2019-02-17T12:48:10.078Z,15.47
2019-02-17T12:50:57.287Z,14.50
2019-02-17T12:53:45.019Z,14.33
2019-02-17T12:56:32.143Z,12.60
2019-02-17T12:59:19.670Z,14.03
2019-02-17T13:02:07.197Z,12.23
2019-02-17T13:04:54.513Z,14.73
2019-02-17T13:07:42.900Z,14.53
2019-02-17T13:10:30.286Z,19.60
2019-02-17T13:13:17.891Z,14.03
2019-02-17T13:16:05.640Z,16.60
2019-02-17T13:18:53.576Z,29.90
2019-02-17T13:21:41.017Z,16.10
2019-02-17T13:24:28.425Z,22.33
2019-02-17T13:27:16.236Z,16.30
2019-02-17T13:30:05.149Z,26.10
2019-02-17T13:32:52.436Z,21.00
2019-02-17T13:35:39.555Z,27.07
2019-02-17T13:38:27.183Z,20.90
2019-02-17T13:41:14.828Z,15.40
2019-02-17T13:44:02.546Z,15.37
2019-02-17T13:46:49.868Z,16.23
2019-02-17T13:49:37.420Z,16.43
2019-02-17T13:52:25.126Z,15.63
2019-02-17T13:55:13.008Z,15.43
2019-02-17T13:58:00.592Z,13.97
2019-02-17T14:00:48.628Z,14.57
2019-02-17T14:03:36.052Z,14.37
2019-02-17T14:06:23.682Z,14.10
2019-02-17T14:09:11.504Z,14.73
2019-02-17T14:11:59.147Z,13.80
2019-02-17T14:14:46.462Z,14.10
2019-02-17T14:17:33.785Z,12.77
2019-02-17T14:20:21.236Z,14.90
2019-02-17T14:23:08.738Z,13.90
2019-02-17T14:25:56.260Z,13.53
2019-02-17T14:28:43.995Z,15.47
2019-02-17T14:31:31.623Z,16.80
2019-02-17T14:34:19.460Z,14.53
2019-02-17T14:37:06.986Z,14.30
2019-02-17T14:39:54.615Z,16.20
2019-02-17T14:42:42.242Z,15.80
2019-02-17T14:45:29.673Z,14.77
2019-02-17T14:48:16.989Z,14.13
2019-02-17T14:51:06.255Z,15.13
2019-02-17T14:53:54.193Z,13.63
2019-02-17T14:56:41.925Z,15.73
2019-02-17T14:59:29.068Z,14.63
2019-02-17T15:02:16.157Z,16.50
2019-02-17T15:05:03.614Z,13.30
2019-02-17T15:07:51.315Z,13.47
2019-02-17T15:10:38.740Z,12.30
2019-02-17T15:13:25.974Z,12.87
2019-02-17T15:16:13.288Z,12.80
2019-02-17T15:19:00.805Z,14.20
2019-02-17T15:21:49.464Z,15.33
2019-02-17T15:24:38.733Z,10.50
2019-02-17T15:27:26.204Z,12.90
2019-02-17T15:30:17.793Z,13.63
2019-02-17T15:33:05.301Z,16.60
2019-02-17T15:35:52.829Z,16.80
2019-02-17T15:38:41.074Z,14.97
2019-02-17T15:41:28.712Z,15.20
2019-02-17T15:44:16.227Z,18.37
2019-02-17T15:47:03.651Z,16.43
2019-02-17T15:49:50.874Z,17.63
2019-02-17T15:52:38.722Z,18.53
2019-02-17T15:55:26.334Z,16.50
2019-02-17T15:58:14.067Z,19.83
2019-02-17T16:01:01.392Z,19.43
2019-02-17T16:03:49.127Z,18.70
2019-02-17T16:06:36.552Z,27.50
2019-02-17T16:09:25.910Z,23.80
2019-02-17T16:12:13.336Z,20.70
2019-02-17T16:15:00.761Z,19.67
2019-02-17T16:17:48.048Z,16.90
2019-02-17T16:20:35.713Z,19.23
2019-02-17T16:23:22.684Z,17.97
2019-02-17T16:26:10.148Z,17.70
2019-02-17T16:28:57.783Z,16.37
2019-02-17T16:31:45.107Z,15.80
2019-02-17T16:34:38.470Z,20.97
2019-02-17T16:37:21.508Z,18.90
2019-02-17T16:40:14.377Z,16.57
2019-02-17T16:43:01.972Z,18.33
2019-02-17T16:45:49.493Z,14.97
2019-02-17T16:48:37.120Z,14.23
2019-02-17T16:51:24.545Z,15.90
2019-02-17T16:54:12.277Z,15.00
2019-02-17T16:56:59.706Z,17.43
2019-02-17T16:59:47.109Z,23.60
2019-02-17T17:02:34.787Z,19.77
2019-02-17T17:05:23.256Z,19.17
2019-02-17T17:08:10.707Z,22.87
2019-02-17T17:10:58.372Z,20.70
2019-02-17T17:13:46.294Z,19.20
2019-02-17T17:16:33.514Z,18.87
2019-02-17T17:19:21.143Z,19.13
2019-02-17T17:22:08.775Z,23.03
2019-02-17T17:24:56.297Z,20.33
2019-02-17T17:27:43.517Z,20.43
2019-02-17T17:30:31.248Z,22.10
2019-02-17T17:33:18.403Z,25.77
2019-02-17T17:36:06.096Z,19.13
2019-02-17T17:38:53.830Z,19.00
2019-02-17T17:41:41.563Z,22.57
2019-02-17T17:44:29.200Z,22.63
2019-02-17T17:47:16.313Z,21.03
2019-02-17T17:50:04.042Z,24.13
2019-02-17T17:52:51.051Z,26.03
2019-02-17T17:55:38.272Z,29.43
2019-02-17T17:58:25.566Z,24.67
2019-02-17T18:01:13.062Z,59.73
2019-02-17T18:04:01.167Z,52.47
2019-02-17T18:06:48.281Z,28.03
2019-02-17T18:09:35.805Z,22.93
2019-02-17T18:12:23.226Z,20.40
2019-02-17T18:15:17.849Z,19.63
2019-02-17T18:18:05.361Z,21.43
2019-02-17T18:20:52.995Z,20.57
2019-02-17T18:23:40.303Z,21.83
2019-02-17T18:26:27.734Z,20.93
2019-02-17T18:29:15.538Z,21.53
2019-02-17T18:32:02.984Z,21.00
2019-02-17T18:34:51.533Z,27.30
2019-02-17T18:37:38.645Z,26.43
2019-02-17T18:40:26.483Z,24.57
2019-02-17T18:43:14.211Z,24.73
2019-02-17T18:46:01.225Z,26.67
2019-02-17T18:48:49.056Z,29.00
2019-02-17T18:51:36.588Z,29.63
2019-02-17T18:54:24.931Z,29.30
2019-02-17T18:57:11.948Z,31.17
2019-02-17T18:59:59.986Z,29.70
2019-02-17T19:02:47.563Z,39.73
2019-02-17T19:05:34.426Z,43.53
2019-02-17T19:08:22.155Z,42.23
2019-02-17T19:11:10.139Z,122.70
2019-02-17T19:13:59.052Z,42.47
2019-02-17T19:16:46.094Z,26.13
2019-02-17T19:19:33.802Z,24.70
2019-02-17T19:22:21.736Z,23.37
2019-02-17T19:25:10.241Z,24.13
2019-02-17T19:27:57.766Z,26.00
2019-02-17T19:30:44.930Z,24.83
2019-02-17T19:33:32.353Z,26.03
2019-02-17T19:36:20.107Z,24.27
2019-02-17T19:39:07.624Z,23.90
2019-02-17T19:41:55.238Z,25.30
2019-02-17T19:44:42.670Z,25.23
2019-02-17T19:47:30.094Z,22.07
2019-02-17T19:50:18.047Z,23.27
2019-02-17T19:53:05.660Z,24.37
2019-02-17T19:55:53.183Z,23.40
2019-02-17T19:58:40.297Z,23.73
2019-02-17T20:01:28.141Z,24.27
2019-02-17T20:04:25.497Z,22.70
2019-02-17T20:07:13.733Z,23.37
2019-02-17T20:10:01.345Z,22.03
2019-02-17T20:12:48.626Z,22.87
2019-02-17T20:15:36.004Z,20.80
2019-02-17T20:18:23.530Z,22.97
2019-02-17T20:21:10.988Z,24.37
2019-02-17T20:23:58.491Z,23.77
2019-02-17T20:26:47.299Z,22.30
2019-02-17T20:29:34.970Z,24.10
2019-02-17T20:32:22.292Z,24.13
2019-02-17T20:35:10.229Z,24.37
2019-02-17T20:37:57.663Z,23.17
2019-02-17T20:40:45.383Z,22.80
2019-02-17T20:43:32.600Z,23.87
2019-02-17T20:46:20.254Z,24.23
2019-02-17T20:49:07.765Z,22.63
2019-02-17T20:51:54.786Z,21.97
2019-02-17T20:54:42.308Z,23.03
2019-02-17T20:57:29.623Z,24.53
2019-02-17T21:00:22.569Z,21.93
2019-02-17T21:03:09.609Z,21.47
2019-02-17T21:05:57.098Z,21.50
2019-02-17T21:08:44.448Z,21.83
2019-02-17T21:11:31.970Z,22.83
2019-02-17T21:14:19.291Z,22.73
2019-02-17T21:17:07.846Z,23.47
2019-02-17T21:19:55.361Z,22.60
2019-02-17T21:22:43.195Z,22.17
2019-02-17T21:25:30.622Z,25.13
2019-02-17T21:28:17.842Z,25.50
2019-02-17T21:31:05.058Z,29.13
2019-02-17T21:33:52.584Z,22.83
2019-02-17T21:36:39.606Z,20.53
2019-02-17T21:39:28.252Z,21.67
2019-02-17T21:42:15.267Z,21.07
2019-02-17T21:45:02.795Z,20.20
2019-02-17T21:47:50.327Z,24.93
2019-02-17T21:50:38.773Z,22.37
2019-02-17T21:53:26.541Z,23.97
2019-02-17T21:56:13.960Z,22.27
2019-02-17T21:59:01.047Z,22.17
2019-02-17T22:01:48.676Z,23.07
2019-02-17T22:04:36.408Z,23.67
2019-02-17T22:07:26.898Z,21.50
2019-02-17T22:10:23.337Z,22.60
2019-02-17T22:13:11.067Z,22.63
2019-02-17T22:16:05.963Z,23.83
2019-02-17T22:18:53.609Z,23.80
2019-02-17T22:21:41.357Z,23.50
2019-02-17T22:24:28.748Z,24.73
2019-02-17T22:27:16.480Z,22.77
2019-02-17T22:30:04.008Z,36.37
2019-02-17T22:32:51.430Z,23.87
2019-02-17T22:35:39.061Z,43.43
2019-02-17T22:38:26.179Z,26.03
2019-02-17T22:41:13.806Z,31.20
2019-02-17T22:44:01.641Z,32.90
2019-02-17T22:46:49.369Z,30.20
2019-02-17T22:49:36.798Z,30.30
2019-02-17T22:52:24.127Z,29.87
2019-02-17T22:55:12.260Z,26.87
2019-02-17T22:57:59.990Z,26.17
2019-02-17T23:00:59.190Z,27.77
2019-02-17T23:03:46.624Z,25.53
2019-02-17T23:06:34.672Z,27.80
2019-02-17T23:09:22.284Z,25.53
2019-02-17T23:12:09.845Z,28.07
2019-02-17T23:14:57.644Z,26.90
2019-02-17T23:17:45.475Z,24.77
2019-02-17T23:20:32.899Z,27.40
2019-02-17T23:23:20.016Z,24.17
2019-02-17T23:26:07.516Z,25.50
2019-02-17T23:28:55.072Z,27.03
2019-02-17T23:31:42.400Z,23.20
2019-02-17T23:34:29.802Z,25.73
2019-02-17T23:37:17.582Z,25.13
2019-02-17T23:40:07.938Z,25.20
2019-02-17T23:42:55.161Z,24.47
2019-02-17T23:45:44.579Z,24.90
2019-02-17T23:48:32.270Z,23.43
2019-02-17T23:51:19.479Z,24.17
2019-02-17T23:54:07.712Z,26.07
2019-02-17T23:56:55.249Z,27.53
2019-02-17T23:59:48.716Z,27.30
